createdAt,value
2019-05-07T00:12:18.928Z,0.60
2019-05-07T00:32:18.350Z,0.37
2019-05-07T00:52:27.734Z,0.49
2019-05-07T01:12:39.398Z,0.70
2019-05-07T01:32:38.835Z,0.36
2019-05-07T01:52:48.161Z,0.60
2019-05-07T02:12:57.571Z,0.49
2019-05-07T02:33:06.931Z,1.41
2019-05-07T02:53:18.152Z,3.82
2019-05-07T03:13:25.301Z,4.05
2019-05-07T03:33:37.189Z,4.85
2019-05-07T03:53:35.843Z,2.85
2019-05-07T04:13:45.173Z,2.21
2019-05-07T04:33:54.482Z,1.98
2019-05-07T04:54:04.001Z,2.04
2019-05-07T05:14:17.935Z,2.08
2019-05-07T05:34:22.116Z,2.79
2019-05-07T05:54:25.648Z,3.05
2019-05-07T06:14:27.328Z,2.95
2019-05-07T06:34:26.700Z,3.68
2019-05-07T06:54:39.256Z,5.71
2019-05-07T07:14:42.346Z,5.73
2019-05-07T07:34:45.386Z,8.75
2019-05-07T07:54:44.796Z,4.89
2019-05-07T08:14:54.223Z,3.13
2019-05-07T08:35:03.573Z,3.02
2019-05-07T08:55:12.616Z,3.16
2019-05-07T09:15:22.746Z,3.95
2019-05-07T09:35:21.959Z,3.13
2019-05-07T09:55:34.303Z,4.48
2019-05-07T10:15:35.046Z,2.78
2019-05-07T10:35:37.674Z,3.19
2019-05-07T10:55:46.720Z,3.16
2019-05-07T11:15:46.074Z,4.02
2019-05-07T11:35:55.519Z,4.61
2019-05-07T11:56:07.380Z,6.89
2019-05-07T12:16:06.719Z,5.15
2019-05-07T12:36:14.667Z,3.68
2019-05-07T12:56:26.346Z,15.72
2019-05-07T13:16:35.116Z,4.64
2019-05-07T13:36:32.747Z,4.34
2019-05-07T13:56:42.170Z,5.27
2019-05-07T14:16:52.955Z,6.57
2019-05-07T14:37:01.948Z,5.90
2019-05-07T14:57:12.440Z,6.23
2019-05-07T15:17:12.851Z,8.28
2019-05-07T15:37:20.780Z,7.15
2019-05-07T15:57:28.740Z,6.81
2019-05-07T16:18:02.905Z,9.24
2019-05-07T16:37:42.840Z,5.61
2019-05-07T16:57:53.532Z,5.72
2019-05-07T17:17:57.852Z,6.01
2019-05-07T17:38:06.514Z,6.15
2019-05-07T17:58:09.495Z,6.89
2019-05-07T18:18:12.953Z,7.13
2019-05-07T18:38:11.371Z,8.15
2019-05-07T18:58:22.467Z,7.22
2019-05-07T19:18:32.282Z,6.90
2019-05-07T19:38:35.450Z,8.50
2019-05-07T19:58:34.928Z,7.70
2019-05-07T20:18:44.325Z,7.62
2019-05-07T20:38:55.267Z,7.50
2019-05-07T20:58:54.664Z,8.02
2019-05-07T21:19:08.564Z,9.97
2019-05-07T21:39:08.007Z,8.78
2019-05-07T21:59:17.408Z,6.90
2019-05-07T22:19:26.846Z,5.27
2019-05-07T22:39:36.183Z,4.66
2019-05-07T22:59:46.358Z,5.76
2019-05-07T23:19:45.694Z,4.84
2019-05-07T23:39:55.043Z,5.41
